Time;durP1;ratioP1;P1;durP2;ratioP2;P2;SDS_P1;SDS_P2;PMS_P1;PMS_P2;Temp;Humidity;BMP_temperature;BMP_pressure;BME280_temperature;BME280_humidity;BME280_pressure;Samples;Min_cycle;Max_cycle;Signal;HPM_P1;HPM_P2
2021/04/26 00:01:22;;;;;;;103.35;65.10;;;18.90;70.80;;;;;;5033751;28;20033;-68
2021/04/26 00:03:48;;;;;;;98.72;67.68;;;18.90;70.70;;;;;;5034149;28;20036;-69
2021/04/26 00:06:13;;;;;;;103.40;65.05;;;18.90;70.70;;;;;;5033911;28;20063;-69
2021/04/26 00:08:39;;;;;;;99.40;64.55;;;18.80;71.10;;;;;;5016212;28;20068;-69
2021/04/26 00:11:05;;;;;;;104.53;64.05;;;18.80;71.50;;;;;;5034002;28;20021;-68
2021/04/26 00:13:31;;;;;;;100.80;66.90;;;18.70;71.40;;;;;;5033725;28;20392;-68
2021/04/26 00:15:56;;;;;;;102.13;65.85;;;18.80;72.30;;;;;;5034102;28;20029;-68
2021/04/26 00:18:22;;;;;;;101.95;66.80;;;18.70;72.30;;;;;;5033846;28;20497;-68
2021/04/26 00:20:48;;;;;;;105.93;65.57;;;18.70;72.40;;;;;;5033855;28;20498;-68
2021/04/26 00:23:13;;;;;;;102.05;65.28;;;18.70;72.60;;;;;;5033808;28;20033;-68
2021/04/26 00:25:40;;;;;;;102.72;65.07;;;18.70;73.00;;;;;;5033719;28;20087;-68
2021/04/26 00:28:06;;;;;;;106.53;67.80;;;18.70;73.20;;;;;;5033707;28;20033;-68
2021/04/26 00:30:32;;;;;;;102.82;64.63;;;18.70;73.40;;;;;;5033361;28;20438;-68
2021/04/26 00:32:58;;;;;;;104.45;66.38;;;18.70;73.10;;;;;;5033540;28;20037;-68
2021/04/26 00:35:24;;;;;;;101.32;64.95;;;18.70;73.20;;;;;;5033394;28;20586;-68
2021/04/26 00:37:50;;;;;;;96.88;63.08;;;18.70;73.60;;;;;;5015673;28;20033;-68
2021/04/26 00:40:17;;;;;;;95.38;63.60;;;18.70;72.80;;;;;;5033235;28;20026;-68
2021/04/26 00:42:43;;;;;;;98.35;63.33;;;18.60;73.00;;;;;;5033567;28;20026;-68
2021/04/26 00:45:15;;;;;;;92.05;61.78;;;18.70;72.70;;;;;;5033596;28;20029;-68
2021/04/26 00:47:42;;;;;;;97.18;62.15;;;18.70;72.10;;;;;;5033787;28;20048;-68
2021/04/26 00:50:12;;;;;;;95.40;60.88;;;18.70;71.40;;;;;;5033320;28;20483;-68
2021/04/26 00:52:38;;;;;;;95.63;60.42;;;18.70;71.60;;;;;;5033488;28;20036;-68
2021/04/26 00:55:04;;;;;;;92.28;59.63;;;18.70;71.40;;;;;;5033455;28;20025;-68
2021/04/26 00:57:30;;;;;;;91.93;60.25;;;18.80;71.80;;;;;;5033621;28;20356;-68
2021/04/26 00:59:57;;;;;;;85.38;57.63;;;18.80;71.40;;;;;;5033219;28;20025;-68
2021/04/26 01:02:24;;;;;;;89.38;58.05;;;18.80;71.30;;;;;;5033418;28;20549;-68
2021/04/26 01:04:53;;;;;;;90.07;59.38;;;18.80;71.60;;;;;;5033222;28;20033;-68
2021/04/26 01:07:19;;;;;;;94.25;61.78;;;18.70;71.80;;;;;;5033264;28;20036;-68
2021/04/26 01:09:45;;;;;;;94.88;59.45;;;18.70;71.90;;;;;;5033288;28;20029;-68
2021/04/26 01:12:19;;;;;;;93.75;57.88;;;18.70;72.50;;;;;;5033940;28;20025;-68
2021/04/26 01:14:49;;;;;;;86.68;58.05;;;18.60;72.50;;;;;;5033144;28;20472;-68
2021/04/26 01:17:22;;;;;;;90.20;56.85;;;18.60;72.80;;;;;;5033186;28;20112;-68
2021/04/26 01:20:08;;;;;;;92.07;59.53;;;18.60;73.00;;;;;;5033162;28;20040;-68
2021/04/26 01:23:10;;;;;;;89.90;55.10;;;18.60;73.20;;;;;;5033002;28;20030;-68
2021/04/26 01:25:39;;;;;;;83.95;55.83;;;18.60;72.80;;;;;;5033116;28;20383;-68
2021/04/26 01:28:43;;;;;;;87.30;57.13;;;18.60;73.40;;;;;;5033070;28;20490;-68
2021/04/26 01:31:13;;;;;;;82.10;53.88;;;18.60;73.80;;;;;;5018872;28;20064;-68
2021/04/26 01:33:52;;;;;;;88.68;56.63;;;18.60;74.10;;;;;;5032973;28;20048;-68
2021/04/26 01:36:22;;;;;;;83.25;53.42;;;18.60;74.10;;;;;;5032912;28;20498;-68
2021/04/26 01:38:49;;;;;;;85.30;54.75;;;18.60;74.00;;;;;;5033167;28;20029;-68
2021/04/26 01:41:16;;;;;;;83.93;53.65;;;18.60;74.30;;;;;;5032860;28;20471;-68
2021/04/26 01:43:42;;;;;;;79.03;51.63;;;18.60;72.30;;;;;;5033252;28;20028;-68
2021/04/26 01:46:11;;;;;;;81.43;53.67;;;18.60;72.60;;;;;;5033041;28;20394;-68
2021/04/26 01:48:43;;;;;;;81.63;53.13;;;18.70;72.40;;;;;;5032735;28;20032;-68
2021/04/26 01:51:11;;;;;;;80.15;51.58;;;18.60;71.70;;;;;;5034533;28;20410;-68
2021/04/26 01:53:41;;;;;;;80.15;52.10;;;18.60;71.20;;;;;;5036506;28;20022;-68
2021/04/26 01:56:09;;;;;;;79.68;51.88;;;18.70;71.40;;;;;;5036383;28;20029;-68
2021/04/26 01:58:41;;;;;;;76.22;48.92;;;18.70;71.20;;;;;;5036312;28;20446;-68
2021/04/26 02:01:08;;;;;;;75.60;48.78;;;18.70;71.00;;;;;;5036250;28;20065;-68
2021/04/26 02:03:34;;;;;;;75.93;49.33;;;18.70;71.20;;;;;;5036104;28;20021;-68
2021/04/26 02:06:01;;;;;;;72.18;48.63;;;18.70;72.40;;;;;;5036006;28;20113;-67
2021/04/26 02:08:28;;;;;;;75.10;47.70;;;18.60;72.20;;;;;;5036054;28;20029;-68
2021/04/26 02:10:55;;;;;;;75.18;48.47;;;18.60;72.70;;;;;;5036245;28;20075;-68
2021/04/26 02:13:23;;;;;;;72.72;48.22;;;18.60;72.60;;;;;;5036134;28;20399;-67
2021/04/26 02:15:52;;;;;;;74.95;48.78;;;18.60;72.80;;;;;;5035967;28;20026;-67
2021/04/26 02:18:17;;;;;;;69.07;46.83;;;18.60;72.80;;;;;;5036005;28;20018;-67
2021/04/26 02:20:43;;;;;;;71.43;47.83;;;18.50;73.30;;;;;;5035641;28;20029;-68
2021/04/26 02:23:09;;;;;;;72.00;47.38;;;18.50;73.40;;;;;;5036002;28;20356;-68
2021/04/26 02:25:35;;;;;;;72.38;47.30;;;18.50;73.30;;;;;;5035737;28;20479;-68
2021/04/26 02:28:00;;;;;;;68.68;46.13;;;18.50;73.40;;;;;;5035753;28;20038;-67
2021/04/26 02:30:44;;;;;;;71.50;45.72;;;18.50;73.40;;;;;;5035466;28;20052;-68
2021/04/26 02:33:16;;;;;;;68.43;44.10;;;18.50;73.40;;;;;;5035759;28;20031;-67
2021/04/26 02:35:48;;;;;;;70.95;46.95;;;18.50;73.50;;;;;;5035685;28;20030;-67
2021/04/26 02:38:28;;;;;;;68.25;45.58;;;18.50;74.10;;;;;;5035532;28;20049;-67
2021/04/26 02:41:06;;;;;;;72.20;47.88;;;18.50;74.50;;;;;;5035704;28;20021;-67
2021/04/26 02:43:40;;;;;;;65.63;45.10;;;18.50;72.60;;;;;;5035592;28;20478;-68
2021/04/26 02:46:07;;;;;;;73.72;45.90;;;18.60;72.00;;;;;;5035351;28;20120;-67
2021/04/26 02:48:35;;;;;;;71.57;46.25;;;18.60;72.00;;;;;;5035212;28;20356;-68
2021/04/26 02:51:01;;;;;;;65.78;43.38;;;18.60;72.00;;;;;;5035135;28;20040;-67
2021/04/26 02:53:30;;;;;;;61.33;41.88;;;18.60;72.10;;;;;;5035330;28;20021;-68
2021/04/26 02:56:06;;;;;;;65.80;44.58;;;18.60;71.10;;;;;;5035252;28;20026;-67
2021/04/26 02:58:33;;;;;;;70.57;44.78;;;18.60;71.70;;;;;;5035268;28;20087;-68
2021/04/26 03:01:01;;;;;;;70.40;45.70;;;18.60;72.20;;;;;;5034973;28;20052;-67
2021/04/26 03:03:28;;;;;;;62.97;42.20;;;18.60;72.60;;;;;;5034882;28;20476;-68
2021/04/26 03:05:55;;;;;;;64.47;43.65;;;18.60;72.90;;;;;;5035181;28;20089;-67
2021/04/26 03:08:21;;;;;;;63.72;42.80;;;18.50;73.40;;;;;;5035057;28;20395;-68
2021/04/26 03:10:48;;;;;;;66.97;43.58;;;18.50;73.60;;;;;;5034867;28;20026;-68
2021/04/26 03:13:16;;;;;;;60.08;40.67;;;18.50;73.80;;;;;;5034838;28;20048;-68
2021/04/26 03:15:41;;;;;;;63.95;43.85;;;18.50;73.70;;;;;;5034758;28;20029;-68
2021/04/26 03:18:08;;;;;;;62.80;41.05;;;18.50;73.50;;;;;;5034844;28;20028;-67
2021/04/26 03:20:34;;;;;;;60.03;41.42;;;18.50;73.60;;;;;;5034925;28;20021;-68
2021/04/26 03:23:00;;;;;;;64.03;42.03;;;18.50;73.90;;;;;;5034805;28;20378;-67
2021/04/26 03:25:26;;;;;;;57.60;41.35;;;18.40;73.80;;;;;;5034694;28;20029;-68
2021/04/26 03:27:54;;;;;;;54.70;39.58;;;18.40;73.50;;;;;;5034485;28;20029;-67
2021/04/26 03:30:25;;;;;;;58.75;40.17;;;18.40;73.50;;;;;;5034340;28;20099;-68
2021/04/26 03:32:51;;;;;;;57.45;39.55;;;18.40;73.60;;;;;;5034545;28;20033;-68
2021/04/26 03:35:19;;;;;;;56.40;38.15;;;18.40;74.30;;;;;;5034267;28;20045;-67
2021/04/26 03:37:46;;;;;;;58.17;39.50;;;18.40;74.10;;;;;;5034250;28;20021;-67
2021/04/26 03:40:17;;;;;;;58.20;39.70;;;18.40;73.20;;;;;;5034404;28;20034;-67
2021/04/26 03:42:43;;;;;;;58.42;40.15;;;18.50;72.80;;;;;;5034699;28;20021;-67
2021/04/26 03:45:12;;;;;;;56.97;39.75;;;18.50;72.50;;;;;;5034409;28;20415;-68
2021/04/26 03:47:38;;;;;;;59.33;37.03;;;18.50;72.30;;;;;;5034401;28;20045;-67
2021/04/26 03:50:04;;;;;;;53.15;35.50;;;18.50;71.90;;;;;;5034030;28;20060;-67
2021/04/26 03:52:30;;;;;;;57.15;38.05;;;18.50;71.40;;;;;;5034014;28;20117;-68
2021/04/26 03:54:55;;;;;;;54.80;38.58;;;18.60;71.40;;;;;;5034283;28;20518;-67
2021/04/26 03:57:21;;;;;;;56.53;37.17;;;18.60;72.10;;;;;;5034179;28;20052;-68
2021/04/26 03:59:47;;;;;;;50.63;35.42;;;18.60;72.20;;;;;;5034190;28;20387;-67
2021/04/26 04:02:12;;;;;;;53.65;34.88;;;18.50;72.10;;;;;;5034094;28;20017;-67
2021/04/26 04:04:39;;;;;;;51.05;35.63;;;18.50;72.40;;;;;;5034021;28;20483;-68
2021/04/26 04:07:04;;;;;;;52.97;35.45;;;18.50;73.20;;;;;;5033771;28;20029;-67
2021/04/26 04:09:30;;;;;;;52.30;35.53;;;18.50;73.20;;;;;;5033811;28;20218;-68
2021/04/26 04:11:56;;;;;;;49.67;34.05;;;18.50;73.30;;;;;;5033927;28;20025;-68
2021/04/26 04:14:21;;;;;;;46.53;32.15;;;18.40;73.30;;;;;;5032981;28;20378;-68
2021/04/26 04:16:47;;;;;;;49.67;32.92;;;18.40;72.80;;;;;;5033851;28;20021;-68
2021/04/26 04:19:12;;;;;;;50.20;33.58;;;18.40;73.60;;;;;;5033866;28;20026;-68
2021/04/26 04:21:38;;;;;;;45.97;32.38;;;18.40;73.00;;;;;;5033861;28;20028;-68
2021/04/26 04:24:05;;;;;;;53.47;35.42;;;18.40;73.20;;;;;;5033624;28;20020;-67
2021/04/26 04:26:30;;;;;;;47.10;32.90;;;18.40;73.20;;;;;;5033568;28;20040;-68
2021/04/26 04:28:56;;;;;;;48.58;31.25;;;18.30;72.90;;;;;;5033487;28;20033;-67
2021/04/26 04:31:22;;;;;;;44.05;30.90;;;18.40;73.20;;;;;;5033589;28;20441;-67
2021/04/26 04:33:47;;;;;;;51.97;32.85;;;18.40;73.30;;;;;;5033403;28;20025;-67
2021/04/26 04:36:15;;;;;;;46.65;32.08;;;18.40;73.40;;;;;;5033302;28;20487;-67
2021/04/26 04:38:41;;;;;;;44.90;31.58;;;18.30;73.30;;;;;;5033394;28;20387;-67
2021/04/26 04:41:07;;;;;;;45.63;31.60;;;18.30;72.70;;;;;;5033569;28;20029;-67
2021/04/26 04:43:33;;;;;;;54.72;33.88;;;18.40;72.50;;;;;;5033533;28;20022;-67
2021/04/26 04:45:59;;;;;;;49.53;33.28;;;18.40;72.20;;;;;;5033560;28;20558;-67
2021/04/26 04:48:25;;;;;;;44.85;30.23;;;18.50;72.20;;;;;;5033266;28;20117;-68
2021/04/26 04:50:50;;;;;;;40.00;28.17;;;18.50;71.60;;;;;;5033284;28;20029;-67
2021/04/26 04:53:16;;;;;;;40.80;28.80;;;18.50;71.20;;;;;;5033386;28;20021;-68
2021/04/26 04:55:42;;;;;;;42.45;27.80;;;18.50;71.30;;;;;;5033397;28;20425;-67
2021/04/26 04:58:07;;;;;;;40.10;27.98;;;18.50;71.20;;;;;;5033416;28;20483;-67
2021/04/26 05:00:33;;;;;;;38.35;26.40;;;18.50;71.60;;;;;;5033328;28;20029;-67
2021/04/26 05:02:59;;;;;;;41.83;27.55;;;18.40;71.90;;;;;;5033420;28;20033;-67
2021/04/26 05:05:25;;;;;;;38.25;26.77;;;18.40;72.10;;;;;;5033391;28;20025;-67
2021/04/26 05:07:50;;;;;;;36.50;26.13;;;18.40;72.00;;;;;;5033462;28;20033;-67
2021/04/26 05:10:16;;;;;;;39.85;26.35;;;18.40;72.50;;;;;;5033389;28;20091;-67
2021/04/26 05:12:42;;;;;;;37.22;25.88;;;18.40;72.40;;;;;;5033117;28;20033;-67
2021/04/26 05:15:08;;;;;;;38.03;25.95;;;18.40;72.60;;;;;;5033221;28;20021;-67
2021/04/26 05:17:34;;;;;;;39.13;27.42;;;18.40;72.60;;;;;;5033144;28;20049;-68
2021/04/26 05:20:00;;;;;;;36.75;25.67;;;18.30;72.90;;;;;;5033265;28;20056;-71
2021/04/26 05:22:25;;;;;;;41.83;27.52;;;18.40;73.30;;;;;;5033146;28;20423;-70
2021/04/26 05:24:53;;;;;;;39.35;26.13;;;18.40;72.70;;;;;;5033948;28;20028;-70
2021/04/26 05:27:18;;;;;;;40.88;27.65;;;18.40;73.60;;;;;;5019016;28;20395;-65
2021/04/26 05:29:44;;;;;;;40.38;27.27;;;18.40;74.00;;;;;;5036615;28;20046;-66
2021/04/26 05:32:10;;;;;;;41.15;27.02;;;18.40;74.40;;;;;;5036717;28;20036;-66
2021/04/26 05:34:35;;;;;;;34.10;23.58;;;18.40;74.10;;;;;;5036669;28;20029;-67
2021/04/26 05:37:01;;;;;;;39.92;26.88;;;18.40;72.60;;;;;;5036652;28;20029;-66
2021/04/26 05:39:27;;;;;;;39.40;27.05;;;18.50;72.20;;;;;;5036812;28;20467;-69
2021/04/26 05:41:53;;;;;;;37.97;27.38;;;18.60;72.00;;;;;;5036479;28;20478;-68
2021/04/26 05:44:19;;;;;;;39.38;25.85;;;18.60;71.90;;;;;;5036621;28;20024;-68
2021/04/26 05:46:44;;;;;;;37.78;26.17;;;18.60;71.70;;;;;;5036477;28;20379;-69
2021/04/26 05:49:10;;;;;;;36.58;26.50;;;18.60;71.40;;;;;;5036492;28;20061;-68
2021/04/26 05:51:36;;;;;;;32.30;23.27;;;18.60;71.30;;;;;;5036293;28;20033;-65
2021/04/26 05:54:02;;;;;;;34.72;25.17;;;18.60;72.10;;;;;;5036380;28;20036;-71
2021/04/26 05:56:27;;;;;;;35.05;23.80;;;18.60;72.10;;;;;;5036407;28;20026;-71
2021/04/26 05:58:53;;;;;;;35.55;24.80;;;18.50;72.20;;;;;;5036366;28;20026;-70
2021/04/26 06:01:19;;;;;;;35.08;24.38;;;18.50;72.80;;;;;;5036352;28;20471;-71
2021/04/26 06:03:45;;;;;;;37.42;23.67;;;18.40;73.00;;;;;;5036321;28;20025;-71
2021/04/26 06:06:10;;;;;;;40.72;25.27;;;18.40;73.80;;;;;;5036321;28;20420;-71
2021/04/26 06:08:36;;;;;;;32.08;22.88;;;18.40;73.80;;;;;;5036243;28;20026;-69
2021/04/26 06:11:02;;;;;;;35.50;23.42;;;18.40;73.80;;;;;;5036003;28;20028;-70
2021/04/26 06:13:28;;;;;;;35.50;23.23;;;18.40;74.00;;;;;;5035890;28;20060;-69
2021/04/26 06:15:54;;;;;;;34.05;23.95;;;18.30;73.80;;;;;;5035764;28;20087;-69
2021/04/26 06:18:22;;;;;;;36.45;23.52;;;18.30;73.90;;;;;;5036071;28;20025;-71
2021/04/26 06:20:50;;;;;;;35.95;23.70;;;18.40;74.20;;;;;;5035857;28;20080;-70
2021/04/26 06:23:17;;;;;;;37.22;23.88;;;18.40;74.20;;;;;;5035876;28;20379;-71
2021/04/26 06:25:43;;;;;;;34.58;22.98;;;18.30;74.10;;;;;;5035676;28;20021;-70
2021/04/26 06:28:10;;;;;;;33.22;21.92;;;18.30;74.20;;;;;;5035770;28;20101;-70
2021/04/26 06:30:38;;;;;;;34.33;22.60;;;18.30;73.80;;;;;;5035477;28;20053;-70
2021/04/26 06:33:04;;;;;;;27.40;20.60;;;18.30;73.00;;;;;;5035556;28;20491;-70
2021/04/26 06:35:30;;;;;;;33.65;22.42;;;18.40;72.30;;;;;;5035470;28;20487;-70
2021/04/26 06:37:57;;;;;;;26.58;19.67;;;18.40;72.00;;;;;;5034880;28;20037;-70
2021/04/26 06:40:23;;;;;;;36.90;22.10;;;18.40;71.60;;;;;;5035439;28;20049;-71
2021/04/26 06:42:49;;;;;;;35.00;21.60;;;18.40;71.60;;;;;;5035642;28;20468;-68
2021/04/26 06:45:21;;;;;;;28.95;20.20;;;18.40;71.30;;;;;;5035559;28;20100;-65
2021/04/26 06:47:51;;;;;;;33.05;18.17;;;18.50;71.60;;;;;;5035576;28;20375;-64
2021/04/26 06:50:18;;;;;;;30.17;17.10;;;18.50;70.60;;;;;;5035054;28;20168;-64
2021/04/26 06:52:48;;;;;;;30.40;18.23;;;18.50;70.00;;;;;;5035438;28;20025;-65
2021/04/26 06:55:14;;;;;;;62.20;36.95;;;18.40;70.20;;;;;;5035007;28;20022;-66
2021/04/26 06:57:40;;;;;;;176.30;104.18;;;18.40;70.30;;;;;;5035173;28;20025;-67
2021/04/26 07:00:08;;;;;;;142.75;90.97;;;18.40;69.90;;;;;;5034987;28;20029;-66
2021/04/26 07:02:33;;;;;;;152.68;102.15;;;18.40;69.70;;;;;;5035201;28;20021;-65
2021/04/26 07:05:00;;;;;;;176.43;105.53;;;18.30;69.10;;;;;;5017175;28;20021;-69
2021/04/26 07:07:26;;;;;;;144.98;87.45;;;18.30;69.00;;;;;;5034931;28;20474;-67
2021/04/26 07:09:52;;;;;;;307.20;183.25;;;18.30;67.30;;;;;;5034889;28;20100;-71
2021/04/26 07:12:18;;;;;;;87.95;56.67;;;18.30;67.50;;;;;;5035161;28;20052;-68
2021/04/26 07:14:44;;;;;;;38.92;26.50;;;18.20;63.50;;;;;;5035172;28;20025;-70
2021/04/26 07:17:10;;;;;;;45.03;29.33;;;18.00;60.00;;;;;;5034917;28;20021;-72
2021/04/26 07:19:36;;;;;;;37.65;23.77;;;17.80;59.70;;;;;;5034671;28;20021;-65
2021/04/26 07:22:02;;;;;;;65.38;42.42;;;17.80;60.70;;;;;;5035370;28;20402;-66
2021/04/26 07:24:27;;;;;;;56.47;33.28;;;17.80;62.00;;;;;;5034821;28;20025;-67
2021/04/26 07:26:53;;;;;;;34.20;26.15;;;17.90;61.00;;;;;;5034787;28;20489;-67
2021/04/26 07:29:19;;;;;;;61.13;41.78;;;17.90;61.20;;;;;;5033238;28;20541;-66
2021/04/26 07:31:44;;;;;;;56.97;42.65;;;17.90;59.80;;;;;;5034628;28;20471;-66
2021/04/26 07:34:10;;;;;;;51.47;37.10;;;18.00;59.80;;;;;;5034306;28;20018;-67
2021/04/26 07:36:36;;;;;;;43.60;28.30;;;18.00;59.70;;;;;;5034332;28;20037;-66
2021/04/26 07:39:03;;;;;;;33.75;21.90;;;18.00;59.70;;;;;;5032397;28;20478;-66
2021/04/26 07:41:29;;;;;;;36.25;24.45;;;18.10;59.80;;;;;;5032311;28;20016;-66
2021/04/26 07:43:54;;;;;;;42.10;26.52;;;18.20;59.70;;;;;;5032106;28;20017;-65
2021/04/26 07:46:20;;;;;;;41.40;27.75;;;18.20;59.80;;;;;;5032026;28;20037;-64
2021/04/26 07:48:46;;;;;;;34.20;24.98;;;18.20;60.00;;;;;;5031936;28;20036;-65
2021/04/26 07:51:11;;;;;;;27.15;19.33;;;18.20;60.90;;;;;;5032034;28;20025;-65
2021/04/26 07:53:37;;;;;;;30.73;20.60;;;18.10;61.50;;;;;;5033049;28;20376;-65
2021/04/26 07:56:03;;;;;;;24.95;18.67;;;18.10;61.60;;;;;;5034162;28;20049;-66
2021/04/26 07:58:29;;;;;;;23.83;16.48;;;18.10;62.50;;;;;;5034232;28;20052;-67
2021/04/26 08:00:54;;;;;;;24.73;17.27;;;18.00;62.50;;;;;;5034029;28;20105;-65
2021/04/26 08:03:20;;;;;;;28.95;17.52;;;18.00;62.80;;;;;;5034051;28;20029;-66
2021/04/26 08:05:46;;;;;;;23.55;16.30;;;18.00;62.90;;;;;;5033999;28;20030;-65
2021/04/26 08:08:12;;;;;;;25.10;16.30;;;18.00;63.00;;;;;;5033998;28;20036;-66
2021/04/26 08:10:38;;;;;;;21.27;14.52;;;18.00;63.40;;;;;;5034038;28;20478;-66
2021/04/26 08:13:04;;;;;;;20.63;12.68;;;18.00;63.40;;;;;;5033754;28;20482;-67
2021/04/26 08:15:30;;;;;;;23.08;13.63;;;18.00;63.40;;;;;;5033815;28;20051;-66
2021/04/26 08:17:55;;;;;;;21.83;13.88;;;18.00;63.90;;;;;;5033797;28;20076;-66
2021/04/26 08:20:21;;;;;;;20.40;15.27;;;18.00;63.90;;;;;;5033717;28;20029;-67
2021/04/26 08:22:47;;;;;;;19.05;14.52;;;18.00;64.10;;;;;;5033742;28;20032;-66
2021/04/26 08:25:13;;;;;;;23.50;13.95;;;18.00;63.90;;;;;;5033605;28;20049;-66
2021/04/26 08:27:39;;;;;;;18.92;14.18;;;18.00;64.00;;;;;;5033656;28;20028;-66
2021/04/26 08:30:07;;;;;;;18.08;12.10;;;17.90;63.40;;;;;;5033326;28;20053;-66
2021/04/26 08:32:33;;;;;;;21.25;12.85;;;18.00;62.60;;;;;;5033634;28;20025;-66
2021/04/26 08:34:58;;;;;;;18.77;11.38;;;18.00;62.30;;;;;;5033606;28;20028;-66
2021/04/26 08:37:24;;;;;;;14.68;11.27;;;18.10;62.50;;;;;;5033566;28;20030;-66
2021/04/26 08:39:50;;;;;;;15.20;10.32;;;18.10;62.70;;;;;;5033871;28;20079;-66
2021/04/26 08:42:17;;;;;;;13.75;11.00;;;18.10;62.70;;;;;;5033620;28;20025;-66
2021/04/26 08:44:43;;;;;;;15.63;11.40;;;18.10;62.70;;;;;;5033628;28;20028;-66
2021/04/26 08:47:10;;;;;;;17.52;11.45;;;18.20;62.40;;;;;;5033585;28;20029;-66
2021/04/26 08:49:36;;;;;;;13.63;10.32;;;18.20;62.70;;;;;;5033310;28;20490;-66
2021/04/26 08:52:02;;;;;;;15.30;10.43;;;18.10;63.00;;;;;;5033515;28;20429;-66
2021/04/26 08:54:28;;;;;;;15.60;10.43;;;18.10;63.60;;;;;;5033280;28;20079;-66
2021/04/26 08:56:54;;;;;;;15.20;9.70;;;18.10;63.60;;;;;;5033373;28;20025;-65
2021/04/26 08:59:19;;;;;;;13.88;9.80;;;18.10;64.00;;;;;;5033566;28;20095;-65
2021/04/26 09:01:48;;;;;;;15.52;10.35;;;18.00;63.90;;;;;;5037268;28;20104;-65
2021/04/26 09:04:14;;;;;;;15.70;10.65;;;18.00;64.40;;;;;;5037362;28;20025;-65
2021/04/26 09:07:02;;;;;;;18.17;10.07;;;18.00;64.70;;;;;;5037406;28;20079;-65
2021/04/26 09:09:43;;;;;;;14.80;10.23;;;18.00;64.90;;;;;;5037314;28;20087;-66
2021/04/26 09:12:14;;;;;;;14.20;11.30;;;18.00;64.90;;;;;;5037258;28;20092;-66
2021/04/26 09:14:45;;;;;;;14.30;9.45;;;18.00;65.10;;;;;;5037047;28;20418;-66
2021/04/26 09:17:31;;;;;;;14.30;9.73;;;18.00;65.30;;;;;;5037250;28;20017;-66
2021/04/26 09:20:16;;;;;;;15.15;9.80;;;18.00;65.50;;;;;;5037244;28;20025;-66
2021/04/26 09:22:53;;;;;;;13.95;9.77;;;18.00;65.50;;;;;;5037045;28;20025;-66
2021/04/26 09:25:23;;;;;;;14.43;9.85;;;18.00;65.60;;;;;;5037060;28;20018;-66
2021/04/26 09:27:55;;;;;;;18.80;10.27;;;18.00;65.90;;;;;;5019718;28;20032;-66
2021/04/26 09:30:42;;;;;;;14.15;9.13;;;17.90;64.10;;;;;;5036754;28;20045;-66
2021/04/26 09:33:15;;;;;;;15.05;9.20;;;18.00;63.70;;;;;;5036649;28;20018;-66
2021/04/26 09:35:42;;;;;;;12.10;9.00;;;18.10;63.50;;;;;;5036537;28;20027;-66
2021/04/26 09:38:43;;;;;;;12.77;8.50;;;18.10;63.70;;;;;;5036743;28;20072;-66
2021/04/26 09:41:16;;;;;;;12.63;8.90;;;18.10;63.80;;;;;;5036804;28;20025;-66
2021/04/26 09:43:53;;;;;;;13.55;9.40;;;18.10;63.80;;;;;;5036715;28;20032;-66
2021/04/26 09:46:22;;;;;;;10.93;8.02;;;18.20;63.80;;;;;;5036397;28;20026;-66
2021/04/26 09:48:48;;;;;;;11.80;8.82;;;18.20;63.90;;;;;;5036538;28;20032;-65
2021/04/26 09:51:20;;;;;;;11.40;8.52;;;18.20;64.60;;;;;;5036521;28;20025;-66
2021/04/26 09:53:54;;;;;;;13.07;9.25;;;18.10;64.70;;;;;;5036544;28;20096;-65
2021/04/26 09:56:36;;;;;;;15.63;8.02;;;18.10;64.60;;;;;;5036528;28;20436;-65
2021/04/26 09:59:03;;;;;;;12.52;8.45;;;18.10;65.10;;;;;;5036485;28;20437;-65
2021/04/26 10:01:29;;;;;;;11.85;8.05;;;18.00;65.00;;;;;;5036304;28;20030;-66
2021/04/26 10:03:56;;;;;;;11.57;8.82;;;18.00;65.20;;;;;;5036315;28;20017;-66
2021/04/26 10:06:25;;;;;;;12.02;8.48;;;18.00;65.50;;;;;;5036247;28;20026;-66
2021/04/26 10:08:54;;;;;;;13.35;9.10;;;18.00;65.70;;;;;;5036288;28;20033;-65
2021/04/26 10:11:21;;;;;;;11.70;8.75;;;18.00;66.10;;;;;;5034809;28;20032;-65
2021/04/26 10:13:49;;;;;;;11.25;8.70;;;18.00;65.70;;;;;;5036140;28;20036;-66
2021/04/26 10:16:25;;;;;;;11.65;7.65;;;18.00;65.80;;;;;;5035956;28;20533;-66
2021/04/26 10:18:59;;;;;;;10.35;7.78;;;18.00;66.00;;;;;;5035987;28;20029;-65
2021/04/26 10:21:24;;;;;;;10.25;7.93;;;18.00;66.00;;;;;;5036111;28;20021;-66
2021/04/26 10:23:51;;;;;;;10.48;7.65;;;18.00;66.00;;;;;;5036010;28;20467;-65
2021/04/26 10:26:42;;;;;;;10.50;7.60;;;18.00;66.00;;;;;;5035735;28;20029;-66
2021/04/26 10:29:11;;;;;;;9.82;6.97;;;18.00;66.20;;;;;;5035703;28;20053;-65
2021/04/26 10:32:02;;;;;;;11.07;7.80;;;18.00;64.90;;;;;;5035876;28;20578;-65
2021/04/26 10:34:34;;;;;;;11.48;7.63;;;18.10;64.50;;;;;;5035644;28;20108;-65
2021/04/26 10:37:05;;;;;;;10.50;6.75;;;18.10;64.40;;;;;;5035441;28;20025;-65
2021/04/26 10:39:35;;;;;;;11.57;7.63;;;18.10;64.50;;;;;;5035552;28;20515;-66
2021/04/26 10:42:11;;;;;;;10.50;7.73;;;18.10;64.50;;;;;;5035686;28;20033;-65
2021/04/26 10:44:40;;;;;;;9.35;6.93;;;18.10;64.60;;;;;;5035462;28;20022;-65
2021/04/26 10:47:26;;;;;;;10.10;7.72;;;18.10;64.50;;;;;;5035398;28;20025;-65
2021/04/26 10:49:59;;;;;;;10.55;7.18;;;18.20;64.40;;;;;;5035232;28;20493;-65
2021/04/26 10:52:28;;;;;;;10.07;7.90;;;18.20;64.40;;;;;;5035549;28;20116;-65
2021/04/26 10:55:01;;;;;;;8.35;6.82;;;18.20;64.70;;;;;;5035416;28;20025;-66
2021/04/26 10:57:47;;;;;;;10.50;6.88;;;18.10;64.50;;;;;;5035492;28;20028;-65
2021/04/26 11:00:40;;;;;;;10.63;8.05;;;18.10;65.30;;;;;;5035300;28;20028;-65
2021/04/26 11:03:05;;;;;;;9.73;6.60;;;18.10;64.70;;;;;;5035292;28;20519;-65
2021/04/26 11:05:45;;;;;;;9.02;7.00;;;18.00;65.10;;;;;;5035178;28;20025;-65
2021/04/26 11:08:40;;;;;;;7.50;6.23;;;18.00;65.80;;;;;;5035154;28;20591;-65
2021/04/26 11:11:29;;;;;;;12.40;7.95;;;18.00;65.70;;;;;;5033296;28;20117;-65
2021/04/26 11:14:02;;;;;;;7.95;6.32;;;18.00;66.00;;;;;;5035104;28;20045;-65
2021/04/26 11:16:31;;;;;;;10.55;7.85;;;18.00;66.00;;;;;;5034905;28;20036;-65
2021/04/26 11:19:03;;;;;;;10.05;7.43;;;18.00;66.00;;;;;;5034904;28;20475;-65
2021/04/26 11:21:44;;;;;;;9.30;6.65;;;17.90;66.20;;;;;;5034857;28;20039;-66
2021/04/26 11:24:12;;;;;;;10.85;7.22;;;17.90;66.20;;;;;;5034231;28;20026;-65
2021/04/26 11:26:37;;;;;;;9.25;6.90;;;17.90;66.20;;;;;;5034762;28;20383;-65
2021/04/26 11:29:13;;;;;;;10.18;6.57;;;17.90;66.10;;;;;;5034404;28;20049;-65
2021/04/26 11:31:42;;;;;;;11.05;7.15;;;17.90;66.30;;;;;;5034702;28;20029;-65
2021/04/26 11:34:16;;;;;;;9.30;6.90;;;18.00;64.90;;;;;;5034444;28;20482;-65
2021/04/26 11:37:00;;;;;;;8.48;6.25;;;18.00;64.70;;;;;;5034254;28;20113;-65
2021/04/26 11:39:34;;;;;;;8.15;6.35;;;18.10;64.50;;;;;;5034331;28;20021;-65
2021/04/26 11:42:02;;;;;;;8.77;6.82;;;18.10;64.50;;;;;;5034407;28;20088;-65
2021/04/26 11:44:35;;;;;;;8.73;6.28;;;18.10;64.80;;;;;;5034519;28;20422;-65
2021/04/26 11:47:06;;;;;;;8.80;6.50;;;18.10;64.60;;;;;;5034317;28;20474;-65
2021/04/26 11:49:58;;;;;;;9.88;6.50;;;18.10;64.30;;;;;;5034343;28;20037;-65
2021/04/26 11:52:27;;;;;;;8.60;6.35;;;18.10;64.40;;;;;;5031090;28;20096;-65
2021/04/26 11:55:13;;;;;;;7.38;5.97;;;18.10;65.40;;;;;;5034277;28;20021;-64
2021/04/26 11:57:51;;;;;;;8.45;6.22;;;18.00;64.70;;;;;;5034157;28;20120;-64
2021/04/26 12:00:25;;;;;;;7.78;5.97;;;18.00;65.20;;;;;;5033857;28;20084;-64
2021/04/26 12:02:53;;;;;;;9.25;6.28;;;18.00;65.20;;;;;;5034059;28;20030;-64
2021/04/26 12:05:24;;;;;;;7.93;6.55;;;18.00;65.50;;;;;;5034099;28;20049;-65
2021/04/26 12:07:54;;;;;;;7.65;5.72;;;18.00;65.10;;;;;;5034078;28;20018;-64
2021/04/26 12:10:22;;;;;;;8.93;6.55;;;18.00;65.30;;;;;;5033770;28;20028;-65
2021/04/26 12:12:52;;;;;;;7.25;5.60;;;18.00;65.40;;;;;;5033876;28;20021;-64
2021/04/26 12:15:21;;;;;;;7.57;5.72;;;17.90;65.70;;;;;;5033816;28;20049;-64
2021/04/26 12:17:51;;;;;;;8.65;6.43;;;17.90;65.60;;;;;;5033967;28;20025;-65
2021/04/26 12:20:21;;;;;;;9.13;6.70;;;17.90;65.50;;;;;;5033743;28;20021;-64
2021/04/26 12:22:50;;;;;;;7.95;6.03;;;17.90;65.80;;;;;;5033709;28;20108;-64
2021/04/26 12:25:18;;;;;;;7.63;6.20;;;17.90;65.70;;;;;;5033656;28;20032;-64
2021/04/26 12:27:44;;;;;;;7.93;6.28;;;17.90;65.40;;;;;;5033735;28;20036;-64
2021/04/26 12:30:16;;;;;;;7.97;5.95;;;17.90;65.00;;;;;;5033344;28;20049;-64
2021/04/26 12:32:43;;;;;;;9.57;5.95;;;17.90;65.50;;;;;;5034087;28;20033;-64
2021/04/26 12:35:14;;;;;;;8.98;5.88;;;17.90;65.10;;;;;;5033029;28;20036;-65
2021/04/26 12:37:46;;;;;;;7.45;5.72;;;17.90;64.30;;;;;;5033298;28;20513;-64
2021/04/26 12:40:25;;;;;;;7.80;6.05;;;18.00;63.80;;;;;;5033636;28;20367;-64